createdAt,value
2022-10-11T00:01:33.413Z,100651.60
2022-10-11T00:04:01.913Z,100654.80
2022-10-11T00:06:31.245Z,100658.20
2022-10-11T00:09:03.979Z,100658.60
2022-10-11T00:11:34.004Z,100661.40
2022-10-11T00:14:03.822Z,100663.40
2022-10-11T00:16:32.717Z,100673.20
2022-10-11T00:19:02.507Z,100674.40
2022-10-11T00:21:32.206Z,100677.40
2022-10-11T00:24:00.278Z,100673.60
2022-10-11T00:26:30.241Z,100689.00
2022-10-11T00:29:00.714Z,100689.40
2022-10-11T00:31:33.301Z,100690.00
2022-10-11T00:34:03.747Z,100684.20
2022-10-11T00:36:34.383Z,100690.40
2022-10-11T00:39:04.610Z,100687.20
2022-10-11T00:41:34.030Z,100695.80
2022-10-11T00:44:17.904Z,100702.80
2022-10-11T00:47:19.920Z,100704.80
2022-10-11T00:50:11.659Z,100708.40
2022-10-11T00:52:52.889Z,100717.20
2022-10-11T00:55:24.437Z,100717.20
2022-10-11T00:57:55.316Z,100721.60
2022-10-11T01:00:23.726Z,100720.80
2022-10-11T01:02:54.097Z,100719.20
2022-10-11T01:05:30.410Z,100712.00
2022-10-11T01:08:03.951Z,100718.40
2022-10-11T01:10:32.770Z,100720.00
2022-10-11T01:13:31.353Z,100724.60
2022-10-11T01:16:19.493Z,100733.40
2022-10-11T01:19:24.610Z,100730.80
2022-10-11T01:22:27.519Z,100731.40
2022-10-11T01:25:28.024Z,100737.60
2022-10-11T01:28:51.515Z,100733.40
2022-10-11T01:31:37.941Z,100734.40
2022-10-11T01:34:17.149Z,100746.00
2022-10-11T01:37:07.702Z,100750.20
2022-10-11T01:40:03.539Z,100753.00
2022-10-11T01:42:34.322Z,100757.60
2022-10-11T01:45:04.592Z,100750.60
2022-10-11T01:47:33.773Z,100751.00
2022-10-11T01:50:03.627Z,100760.00
2022-10-11T01:52:38.713Z,100764.40
2022-10-11T01:55:37.774Z,100764.40
2022-10-11T01:58:31.025Z,100760.00
2022-10-11T02:01:58.237Z,100763.20
2022-10-11T02:04:44.388Z,100762.60
2022-10-11T02:07:34.016Z,100772.60
2022-10-11T02:10:48.995Z,100782.20
2022-10-11T02:13:53.279Z,100778.20
2022-10-11T02:16:36.861Z,100784.00
2022-10-11T02:19:09.802Z,100786.40
2022-10-11T02:21:45.596Z,100786.20
2022-10-11T02:24:30.864Z,100782.60
2022-10-11T02:27:07.494Z,100786.20
2022-10-11T02:29:42.324Z,100787.80
2022-10-11T02:32:13.138Z,100793.00
2022-10-11T02:34:53.795Z,100801.60
2022-10-11T02:37:39.880Z,100804.20
2022-10-11T02:40:27.790Z,100804.00
2022-10-11T02:43:11.261Z,100806.60
2022-10-11T02:45:48.869Z,100808.20
2022-10-11T02:48:24.640Z,100815.60
2022-10-11T02:50:56.114Z,100816.20
2022-10-11T02:53:27.222Z,100816.80
2022-10-11T02:55:56.141Z,100816.20
2022-10-11T02:58:25.568Z,100828.20
2022-10-11T03:00:53.413Z,100836.80
2022-10-11T03:03:21.841Z,100841.60
2022-10-11T03:05:49.545Z,100847.60
2022-10-11T03:08:19.044Z,100846.40
2022-10-11T03:10:47.254Z,100855.60
2022-10-11T03:13:18.071Z,100855.00
2022-10-11T03:16:03.315Z,100855.60
2022-10-11T03:18:32.014Z,100857.80
2022-10-11T03:21:01.213Z,100859.80
2022-10-11T03:23:31.728Z,100859.00
2022-10-11T03:25:59.403Z,100859.40
2022-10-11T03:28:28.256Z,100859.00
2022-10-11T03:31:00.549Z,100863.40
2022-10-11T03:33:28.439Z,100869.40
2022-10-11T03:35:56.617Z,100869.60
2022-10-11T03:38:24.281Z,100875.80
2022-10-11T03:40:55.008Z,100878.80
2022-10-11T03:43:26.795Z,100882.40
2022-10-11T03:45:54.605Z,100883.00
2022-10-11T03:48:26.043Z,100880.80
2022-10-11T03:50:53.776Z,100884.60
2022-10-11T03:53:22.067Z,100879.20
2022-10-11T03:55:57.978Z,100885.20
2022-10-11T03:58:28.067Z,100893.80
2022-10-11T04:00:58.875Z,100896.60
2022-10-11T04:03:28.643Z,100908.80
2022-10-11T04:05:56.440Z,100912.80
2022-10-11T04:08:27.522Z,100916.20
2022-10-11T04:10:56.693Z,100924.40
2022-10-11T04:13:26.828Z,100919.80
2022-10-11T04:15:54.605Z,100925.00
2022-10-11T04:18:24.544Z,100927.40
2022-10-11T04:20:52.222Z,100930.40
2022-10-11T04:23:20.916Z,100935.40
2022-10-11T04:25:49.672Z,100938.60
2022-10-11T04:28:17.750Z,100943.60
2022-10-11T04:30:46.704Z,100941.00
2022-10-11T04:33:14.778Z,100947.80
2022-10-11T04:35:42.562Z,100946.60
2022-10-11T04:38:10.299Z,100948.60
2022-10-11T04:40:41.586Z,100951.20
2022-10-11T04:43:16.993Z,100955.40
2022-10-11T04:45:47.568Z,100964.60
2022-10-11T04:48:18.237Z,100964.80
2022-10-11T04:50:54.027Z,100968.60
2022-10-11T04:53:41.007Z,100977.80
2022-10-11T04:56:12.288Z,100977.40
2022-10-11T04:58:42.324Z,100969.80
2022-10-11T05:01:11.713Z,100970.60
2022-10-11T05:03:43.096Z,100976.40
2022-10-11T05:06:11.554Z,100976.60
2022-10-11T05:08:47.251Z,100980.60
2022-10-11T05:11:19.544Z,100983.80
2022-10-11T05:13:52.458Z,100987.00
2022-10-11T05:16:22.612Z,100987.60
2022-10-11T05:18:51.037Z,100990.80
2022-10-11T05:21:26.607Z,100998.20
2022-10-11T05:23:57.028Z,101001.20
2022-10-11T05:26:29.117Z,101000.80
2022-10-11T05:28:56.897Z,101009.40
2022-10-11T05:31:24.731Z,101008.40
2022-10-11T05:33:53.933Z,101010.80
2022-10-11T05:36:21.890Z,101012.60
2022-10-11T05:38:53.995Z,101012.40
2022-10-11T05:41:22.195Z,101018.00
2022-10-11T05:43:50.954Z,101022.20
2022-10-11T05:46:20.184Z,101021.40
2022-10-11T05:48:50.049Z,101030.60
2022-10-11T05:51:17.739Z,101025.40
2022-10-11T05:53:47.033Z,101024.00
2022-10-11T05:56:24.821Z,101023.40
2022-10-11T05:59:02.166Z,101024.60
2022-10-11T06:01:30.629Z,101029.80
2022-10-11T06:03:59.979Z,101039.20
2022-10-11T06:06:29.799Z,101043.60
2022-10-11T06:08:58.181Z,101043.80
2022-10-11T06:11:27.963Z,101050.80
2022-10-11T06:14:01.229Z,101057.60
2022-10-11T06:16:30.977Z,101064.60
2022-10-11T06:19:00.997Z,101067.80
2022-10-11T06:21:28.685Z,101074.20
2022-10-11T06:24:01.376Z,101068.40
2022-10-11T06:26:30.409Z,101074.60
2022-10-11T06:29:00.305Z,101070.80
2022-10-11T06:31:31.021Z,101080.20
2022-10-11T06:34:02.810Z,101078.40
2022-10-11T06:36:34.094Z,101086.40
2022-10-11T06:39:03.636Z,101085.00
2022-10-11T06:41:33.083Z,101089.00
2022-10-11T06:44:00.955Z,101091.00
2022-10-11T06:46:33.254Z,101089.60
2022-10-11T06:49:02.579Z,101100.20
2022-10-11T06:51:31.900Z,101101.20
2022-10-11T06:54:04.387Z,101104.20
2022-10-11T06:56:33.795Z,101103.20
2022-10-11T06:59:03.056Z,101112.80
2022-10-11T07:01:33.920Z,101114.60
2022-10-11T07:04:03.015Z,101118.40
2022-10-11T07:06:40.792Z,101117.00
2022-10-11T07:09:10.115Z,101121.40
2022-10-11T07:11:39.861Z,101124.80
2022-10-11T07:14:11.173Z,101129.40
2022-10-11T07:16:41.050Z,101131.60
2022-10-11T07:19:16.572Z,101137.00
2022-10-11T07:21:44.868Z,101141.60
2022-10-11T07:24:12.650Z,101142.60
2022-10-11T07:26:41.269Z,101146.20
2022-10-11T07:29:12.100Z,101152.60
2022-10-11T07:31:44.136Z,101152.40
2022-10-11T07:34:13.960Z,101157.00
2022-10-11T07:36:42.514Z,101155.60
2022-10-11T07:39:11.099Z,101159.20
2022-10-11T07:41:44.601Z,101166.40
2022-10-11T07:44:14.994Z,101164.00
2022-10-11T07:46:44.463Z,101174.00
2022-10-11T07:49:13.096Z,101170.60
2022-10-11T07:51:43.305Z,101174.80
2022-10-11T07:54:12.000Z,101175.20
2022-10-11T07:56:41.296Z,101190.00
2022-10-11T07:59:13.646Z,101190.20
2022-10-11T08:01:46.595Z,101182.00
2022-10-11T08:04:17.177Z,101190.80
2022-10-11T08:06:45.740Z,101184.00
2022-10-11T08:09:18.036Z,101188.40
2022-10-11T08:11:45.834Z,101194.80
2022-10-11T08:14:14.643Z,101190.80
2022-10-11T08:16:43.863Z,101197.00
2022-10-11T08:19:11.713Z,101204.20
2022-10-11T08:21:39.715Z,101208.00
2022-10-11T08:24:10.977Z,101210.40
2022-10-11T08:26:40.554Z,101209.40
2022-10-11T08:29:08.556Z,101212.60
2022-10-11T08:31:42.093Z,101209.60
2022-10-11T08:34:14.229Z,101212.60
2022-10-11T08:36:42.258Z,101219.40
2022-10-11T08:39:11.597Z,101221.80
2022-10-11T08:41:52.565Z,101218.80
2022-10-11T08:45:09.480Z,101224.80
2022-10-11T08:47:43.237Z,101229.20
2022-10-11T08:50:23.980Z,101228.40
2022-10-11T08:53:32.555Z,101233.40
2022-10-11T08:56:01.879Z,101234.20
2022-10-11T08:59:24.873Z,101244.00
2022-10-11T09:02:25.468Z,101246.60
2022-10-11T09:04:58.274Z,101244.20
2022-10-11T09:07:57.437Z,101253.00
2022-10-11T09:11:30.438Z,101258.80
2022-10-11T09:14:42.491Z,101258.00
2022-10-11T09:17:35.642Z,101265.40
2022-10-11T09:21:00.810Z,101271.00
2022-10-11T09:24:03.928Z,101273.40
2022-10-11T09:27:33.214Z,101275.00
2022-10-11T09:30:19.213Z,101276.20
2022-10-11T09:33:28.992Z,101278.00
2022-10-11T09:35:58.158Z,101281.40
2022-10-11T09:38:54.473Z,101282.80
2022-10-11T09:42:08.861Z,101283.80
2022-10-11T09:44:46.929Z,101288.20
2022-10-11T09:47:29.651Z,101293.20
2022-10-11T09:50:16.396Z,101301.00
2022-10-11T09:52:59.966Z,101308.00
2022-10-11T09:55:53.165Z,101311.60
2022-10-11T09:58:35.487Z,101314.20
2022-10-11T10:01:21.563Z,101319.60
2022-10-11T10:04:15.208Z,101320.80
2022-10-11T10:06:43.508Z,101324.00
2022-10-11T10:09:32.564Z,101334.40
2022-10-11T10:12:15.249Z,101336.40
2022-10-11T10:14:43.015Z,101337.20
2022-10-11T10:17:18.208Z,101335.00
2022-10-11T10:19:56.014Z,101340.80
2022-10-11T10:22:35.840Z,101347.40
2022-10-11T10:25:08.459Z,101356.60
2022-10-11T10:27:37.914Z,101366.00
2022-10-11T10:30:14.570Z,101371.80
2022-10-11T10:33:03.785Z,101379.60
2022-10-11T10:35:36.490Z,101399.20
2022-10-11T10:38:33.968Z,101402.60
2022-10-11T10:41:10.179Z,101419.80
2022-10-11T10:43:41.948Z,101427.60
2022-10-11T10:46:57.561Z,101430.20
2022-10-11T10:49:53.798Z,101444.80
2022-10-11T10:53:07.490Z,101456.40
2022-10-11T10:55:51.963Z,101467.60
2022-10-11T10:59:15.728Z,101480.20
2022-10-11T11:02:15.883Z,101482.20
2022-10-11T11:05:09.568Z,101499.80
2022-10-11T11:08:00.562Z,101500.60
2022-10-11T11:11:03.290Z,101512.60
2022-10-11T11:13:42.376Z,101526.80
2022-10-11T11:16:37.266Z,101527.80
2022-10-11T11:19:15.161Z,101535.00
2022-10-11T11:22:06.986Z,101542.20
2022-10-11T11:25:17.301Z,101543.40
2022-10-11T11:28:20.720Z,101547.40
2022-10-11T11:31:07.349Z,101552.80
2022-10-11T11:34:19.696Z,101556.20
2022-10-11T11:37:26.840Z,101564.20
2022-10-11T11:40:23.362Z,101558.80
2022-10-11T11:43:07.525Z,101567.00
2022-10-11T11:45:38.810Z,101561.00
2022-10-11T11:48:19.426Z,101563.20
2022-10-11T11:51:27.790Z,101568.40
2022-10-11T11:55:17.011Z,101570.60
2022-10-11T11:57:48.455Z,101567.80
2022-10-11T12:01:03.493Z,101569.80
2022-10-11T12:04:01.753Z,101570.60
2022-10-11T12:06:47.781Z,101569.80
2022-10-11T12:09:23.815Z,101563.60
2022-10-11T12:12:00.196Z,101575.80
2022-10-11T12:14:35.963Z,101575.60
2022-10-11T12:17:23.329Z,101584.80
2022-10-11T12:20:32.064Z,101580.20
2022-10-11T12:23:28.410Z,101583.80
2022-10-11T12:26:28.189Z,101578.00
2022-10-11T12:29:50.376Z,101575.20
2022-10-11T12:32:37.094Z,101573.60
2022-10-11T12:35:42.819Z,101581.60
2022-10-11T12:38:18.957Z,101584.00
2022-10-11T12:40:54.378Z,101589.80
2022-10-11T12:43:52.256Z,101584.80
2022-10-11T12:46:31.115Z,101596.40
2022-10-11T12:49:21.958Z,101595.80
2022-10-11T12:52:20.725Z,101597.60
2022-10-11T12:55:14.989Z,101604.60
2022-10-11T12:58:25.683Z,101600.20
2022-10-11T13:00:56.099Z,101602.20
2022-10-11T13:03:37.238Z,101612.20
2022-10-11T13:06:28.597Z,101623.20
2022-10-11T13:09:11.460Z,101629.60
2022-10-11T13:11:54.719Z,101630.40
2022-10-11T13:14:27.489Z,101631.80
2022-10-11T13:17:22.180Z,101628.80
2022-10-11T13:20:02.178Z,101629.60
2022-10-11T13:22:36.200Z,101631.00
2022-10-11T13:25:09.059Z,101639.20
2022-10-11T13:27:38.563Z,101637.60
2022-10-11T13:30:35.830Z,101635.40
2022-10-11T13:33:21.836Z,101649.20
2022-10-11T13:35:52.696Z,101649.40
2022-10-11T13:38:38.878Z,101653.00
2022-10-11T13:41:11.912Z,101659.80
2022-10-11T13:43:42.562Z,101661.20
2022-10-11T13:46:21.906Z,101660.00
2022-10-11T13:49:04.620Z,101662.00
2022-10-11T13:51:38.738Z,101661.20
2022-10-11T13:54:13.744Z,101671.40
2022-10-11T13:56:53.576Z,101660.00
2022-10-11T13:59:28.408Z,101670.60
2022-10-11T14:02:04.485Z,101680.40
2022-10-11T14:04:41.799Z,101678.20
2022-10-11T14:07:34.244Z,101677.60
2022-10-11T14:10:03.801Z,101676.80
2022-10-11T14:12:44.564Z,101678.40
2022-10-11T14:15:29.388Z,101688.80
2022-10-11T14:18:00.457Z,101688.40
2022-10-11T14:20:36.389Z,101688.40
2022-10-11T14:23:07.625Z,101682.60
2022-10-11T14:25:39.150Z,101687.40
2022-10-11T14:28:13.797Z,101694.20
2022-10-11T14:30:43.700Z,101701.20
2022-10-11T14:33:12.557Z,101696.60
2022-10-11T14:35:46.643Z,101699.60
2022-10-11T14:38:19.753Z,101703.60
2022-10-11T14:40:49.343Z,101701.80
2022-10-11T14:43:20.168Z,101697.80
2022-10-11T14:45:51.021Z,101700.20
2022-10-11T14:48:36.675Z,101701.40
2022-10-11T14:51:13.989Z,101695.60
2022-10-11T14:53:46.674Z,101697.80
2022-10-11T14:56:20.363Z,101693.60
2022-10-11T14:58:51.851Z,101690.00
2022-10-11T15:01:21.765Z,101691.80
2022-10-11T15:03:50.044Z,101698.20
2022-10-11T15:06:30.902Z,101702.60
2022-10-11T15:08:58.946Z,101701.00
2022-10-11T15:11:34.203Z,101704.60
2022-10-11T15:14:08.913Z,101702.60
2022-10-11T15:16:47.460Z,101701.00
2022-10-11T15:19:23.360Z,101705.40
2022-10-11T15:21:55.563Z,101707.40
2022-10-11T15:24:23.371Z,101711.80
2022-10-11T15:26:52.547Z,101719.40
2022-10-11T15:29:24.400Z,101726.40
2022-10-11T15:31:52.287Z,101733.00
2022-10-11T15:34:21.418Z,101744.00
2022-10-11T15:36:55.011Z,101749.00
2022-10-11T15:39:32.866Z,101748.40
2022-10-11T15:42:06.701Z,101752.40
2022-10-11T15:44:37.331Z,101751.40
2022-10-11T15:47:05.476Z,101752.20
2022-10-11T15:49:34.056Z,101750.20
2022-10-11T15:52:02.911Z,101760.40
2022-10-11T15:54:32.191Z,101759.80
2022-10-11T15:57:00.649Z,101763.40
2022-10-11T15:59:28.530Z,101774.40
2022-10-11T16:02:02.310Z,101779.00
2022-10-11T16:04:30.821Z,101783.00
2022-10-11T16:06:58.991Z,101787.20
2022-10-11T16:09:28.583Z,101791.00
2022-10-11T16:11:57.751Z,101779.20
2022-10-11T16:14:26.721Z,101788.40
2022-10-11T16:16:56.565Z,101784.40
2022-10-11T16:19:25.426Z,101785.60
2022-10-11T16:21:54.166Z,101790.00
2022-10-11T16:24:23.715Z,101796.40
2022-10-11T16:26:55.617Z,101806.40
2022-10-11T16:29:25.715Z,101801.00
2022-10-11T16:31:53.636Z,101806.60
2022-10-11T16:34:24.085Z,101805.60
2022-10-11T16:36:53.681Z,101814.60
2022-10-11T16:39:25.467Z,101815.00
2022-10-11T16:41:54.646Z,101812.00
2022-10-11T16:44:27.747Z,101809.40
2022-10-11T16:46:58.184Z,101807.20
2022-10-11T16:49:39.022Z,101809.40
2022-10-11T16:52:10.362Z,101809.40
2022-10-11T16:54:38.540Z,101805.80
2022-10-11T16:57:07.637Z,101811.00
2022-10-11T16:59:36.082Z,101813.00
2022-10-11T17:02:05.931Z,101815.00
2022-10-11T17:04:37.909Z,101821.40
2022-10-11T17:07:12.190Z,101823.20
2022-10-11T17:09:44.275Z,101820.40
2022-10-11T17:12:16.647Z,101818.40
2022-10-11T17:14:48.097Z,101826.20
2022-10-11T17:17:18.052Z,101828.00
2022-10-11T17:19:48.703Z,101827.40
2022-10-11T17:22:19.835Z,101831.00
2022-10-11T17:24:47.710Z,101823.00
2022-10-11T17:27:16.534Z,101821.00
2022-10-11T17:29:44.246Z,101826.60
2022-10-11T17:32:14.135Z,101826.80
2022-10-11T17:34:42.659Z,101822.60
2022-10-11T17:37:12.547Z,101822.40
2022-10-11T17:39:43.983Z,101823.20
2022-10-11T17:42:12.083Z,101825.40
2022-10-11T17:44:40.412Z,101834.40
2022-10-11T17:47:09.773Z,101832.00
2022-10-11T17:49:37.926Z,101832.00
2022-10-11T17:52:05.935Z,101834.40
2022-10-11T17:54:34.047Z,101836.80
2022-10-11T17:57:04.973Z,101835.00
2022-10-11T17:59:36.136Z,101833.00
2022-10-11T18:02:04.434Z,101841.80
2022-10-11T18:04:35.558Z,101845.60
2022-10-11T18:07:04.907Z,101855.80
2022-10-11T18:09:34.261Z,101862.20
2022-10-11T18:12:05.351Z,101863.40
2022-10-11T18:14:34.596Z,101868.80
2022-10-11T18:17:04.595Z,101871.00
2022-10-11T18:19:35.011Z,101865.80
2022-10-11T18:22:07.031Z,101873.80
2022-10-11T18:24:39.189Z,101877.40
2022-10-11T18:27:10.157Z,101876.60
2022-10-11T18:29:43.686Z,101879.60
2022-10-11T18:32:13.476Z,101879.20
2022-10-11T18:34:42.337Z,101883.40
2022-10-11T18:37:10.223Z,101880.80
2022-10-11T18:39:40.006Z,101881.60
2022-10-11T18:42:09.779Z,101881.00
2022-10-11T18:44:42.148Z,101875.60
2022-10-11T18:47:11.755Z,101877.60
2022-10-11T18:49:40.143Z,101875.80
2022-10-11T18:52:09.871Z,101878.60
2022-10-11T18:54:40.130Z,101882.40
2022-10-11T18:57:09.405Z,101880.40
2022-10-11T18:59:37.446Z,101889.20
2022-10-11T19:02:07.438Z,101888.80
2022-10-11T19:04:39.679Z,101894.40
2022-10-11T19:07:07.724Z,101894.20
2022-10-11T19:09:36.697Z,101894.40
2022-10-11T19:12:04.909Z,101891.00
2022-10-11T19:14:32.770Z,101891.80
2022-10-11T19:17:00.809Z,101887.40
2022-10-11T19:19:30.857Z,101891.80
2022-10-11T19:22:01.163Z,101895.20
2022-10-11T19:24:31.908Z,101894.40
2022-10-11T19:27:02.820Z,101895.20
2022-10-11T19:29:34.584Z,101895.60
2022-10-11T19:32:03.863Z,101899.80
2022-10-11T19:34:33.340Z,101907.20
2022-10-11T19:37:03.622Z,101908.20
2022-10-11T19:39:33.776Z,101912.00
2022-10-11T19:42:01.850Z,101914.60
2022-10-11T19:44:34.506Z,101911.00
2022-10-11T19:47:09.745Z,101917.00
2022-10-11T19:49:38.626Z,101918.00
2022-10-11T19:52:16.143Z,101922.00
2022-10-11T19:54:46.650Z,101926.40
2022-10-11T19:57:16.972Z,101932.00
2022-10-11T19:59:46.550Z,101928.60
2022-10-11T20:02:15.244Z,101933.40
2022-10-11T20:04:52.475Z,101939.00
2022-10-11T20:07:21.180Z,101937.80
2022-10-11T20:09:50.599Z,101934.20
2022-10-11T20:12:19.383Z,101927.20
2022-10-11T20:14:47.157Z,101926.20
2022-10-11T20:17:16.434Z,101927.00
2022-10-11T20:19:48.155Z,101934.20
2022-10-11T20:22:17.211Z,101937.20
2022-10-11T20:24:47.462Z,101943.00
2022-10-11T20:27:15.653Z,101948.80
2022-10-11T20:29:43.434Z,101953.20
2022-10-11T20:32:15.289Z,101951.20
2022-10-11T20:34:43.547Z,101950.00
2022-10-11T20:37:11.570Z,101953.00
2022-10-11T20:39:40.118Z,101960.20
2022-10-11T20:42:09.002Z,101964.80
2022-10-11T20:44:36.937Z,101965.00
2022-10-11T20:47:07.413Z,101977.60
2022-10-11T20:49:35.437Z,101979.40
2022-10-11T20:52:03.415Z,101979.60
2022-10-11T20:54:31.879Z,101983.20
2022-10-11T20:57:00.636Z,101985.80
2022-10-11T20:59:29.162Z,101982.80
2022-10-11T21:01:56.999Z,101981.40
2022-10-11T21:04:25.022Z,101977.20
2022-10-11T21:06:56.728Z,101979.00
2022-10-11T21:09:27.201Z,101980.80
2022-10-11T21:11:55.123Z,101985.20
2022-10-11T21:14:23.533Z,101988.80
2022-10-11T21:16:56.882Z,101990.80
2022-10-11T21:19:24.892Z,101994.60
2022-10-11T21:21:56.163Z,101996.00
2022-10-11T21:24:24.246Z,101995.60
2022-10-11T21:26:53.307Z,101995.00
2022-10-11T21:29:22.769Z,101986.00
2022-10-11T21:31:53.224Z,101985.80
2022-10-11T21:34:22.182Z,101981.00
2022-10-11T21:36:50.829Z,101987.20
2022-10-11T21:39:20.825Z,101988.00
2022-10-11T21:41:49.623Z,101991.00
2022-10-11T21:44:19.024Z,101992.00
2022-10-11T21:47:06.076Z,101989.20
2022-10-11T21:49:36.506Z,101991.80
2022-10-11T21:52:05.416Z,101999.60
2022-10-11T21:54:35.201Z,101996.00
2022-10-11T21:57:03.452Z,101995.60
2022-10-11T21:59:33.680Z,101994.60
2022-10-11T22:02:05.272Z,101999.00
2022-10-11T22:04:35.373Z,102002.00
2022-10-11T22:07:08.197Z,101999.00
2022-10-11T22:09:37.390Z,102002.00
2022-10-11T22:12:07.944Z,102005.40
2022-10-11T22:14:36.476Z,102002.60
2022-10-11T22:17:04.153Z,102003.00
2022-10-11T22:19:32.518Z,102008.40
2022-10-11T22:22:02.006Z,102010.40
2022-10-11T22:24:31.927Z,102010.40
2022-10-11T22:26:59.827Z,102006.80
2022-10-11T22:29:33.164Z,102010.00
2022-10-11T22:32:02.305Z,102007.00
2022-10-11T22:34:36.279Z,102014.60
2022-10-11T22:37:05.147Z,102012.60
2022-10-11T22:39:35.691Z,102019.20
2022-10-11T22:42:03.598Z,102019.00
2022-10-11T22:44:31.530Z,102021.40
2022-10-11T22:47:02.400Z,102018.40
2022-10-11T22:49:30.064Z,102014.00
2022-10-11T22:51:59.374Z,102010.00
2022-10-11T22:54:27.530Z,102010.20
2022-10-11T22:56:55.515Z,102011.40
2022-10-11T22:59:24.662Z,102016.80
2022-10-11T23:01:53.284Z,102018.20
2022-10-11T23:04:24.745Z,102020.80
2022-10-11T23:06:55.282Z,102021.20
2022-10-11T23:09:26.832Z,102015.20
2022-10-11T23:11:57.473Z,102016.40
2022-10-11T23:14:25.649Z,102016.40
2022-10-11T23:16:57.382Z,102021.40
2022-10-11T23:19:26.522Z,102026.20
2022-10-11T23:21:57.743Z,102026.60
2022-10-11T23:24:27.022Z,102026.00
2022-10-11T23:26:59.339Z,102022.60
2022-10-11T23:29:31.180Z,102025.80
2022-10-11T23:32:00.192Z,102031.20
2022-10-11T23:34:30.660Z,102038.00
2022-10-11T23:36:58.481Z,102040.80
2022-10-11T23:39:28.903Z,102044.00
2022-10-11T23:41:58.560Z,102042.60
2022-10-11T23:44:26.267Z,102044.00
2022-10-11T23:46:56.827Z,102053.00
2022-10-11T23:49:25.230Z,102058.20
2022-10-11T23:51:54.420Z,102064.00
2022-10-11T23:54:24.342Z,102057.80
2022-10-11T23:56:53.948Z,102052.60
2022-10-11T23:59:23.609Z,102055.80
